O Portipesca — CUDH8 — position and weather

sailwx.info

Track history (hours):
 
Tides and Currents Weather Stations Pressure Air Temp Water Temp Dewpoint Dewpoint Depression Visibility Wind Speed Wind Dir Waves Ship Positions

O Portipesca

Last reported at 2018-Jun-20 22:11 UTC. Time now 2018-Jun-20 23:09 UTC.
Position N 37°03' W 008°42'.

Length 23 m.

Type: Fishing. MMSI: 263401780.

Date/timePositionNaut miles runAvg speedWind from/ knotsBaromVisibWave heightAir tempDewpointWater temp
2018-Jun-20 22:11N 37°03' W 008°42'2 9.0
2018-Jun-20 22:00N 37°04' W 008°40'4 8.8
2018-Jun-20 21:30N 37°05' W 008°35'3 7.0
2018-Jun-20 21:00N 37°08' W 008°32'0 0.6
2018-Jun-20 20:27N 37°08' W 008°32'0 0.0
2018-Jun-20 20:00N 37°08' W 008°32'0 0.0
2018-Jun-20 19:29N 37°08' W 008°32'0 0.0
2018-Jun-20 19:00N 37°08' W 008°32'0 0.0
2018-Jun-20 18:30N 37°08' W 008°32'0 0.3
2018-Jun-20 18:00N 37°08' W 008°32'0 0.0
2018-Jun-20 17:30N 37°08' W 008°32'0 0.0
2018-Jun-20 17:00N 37°08' W 008°32'0 0.0
2018-Jun-20 13:55N 37°08' W 008°32'0 0.0
2018-Jun-20 13:30N 37°08' W 008°32'0 0.0
2018-Jun-20 13:00N 37°08' W 008°32'0 0.0
2018-Jun-20 12:30N 37°08' W 008°32'0 0.0
2018-Jun-20 08:55N 37°08' W 008°32'0 0.1
2018-Jun-20 07:39N 37°08' W 008°32'0 0.0
2018-Jun-20 07:10N 37°08' W 008°32'0 0.0
2018-Jun-20 07:00N 37°08' W 008°32'4 8.0
2018-Jun-20 06:30N 37°05' W 008°29'4 7.1
2018-Jun-20 06:00N 37°02' W 008°26'3 5.6
2018-Jun-20 05:30N 36°59' W 008°25'3 5.2
2018-Jun-20 05:00N 37°01' W 008°27'3 5.3
2018-Jun-20 04:30N 37°03' W 008°25'4 8.7
2018-Jun-20 04:00N 37°01' W 008°20'5 9.9
2018-Jun-20 03:29N 36°59' W 008°14'1 0.9
2018-Jun-20 02:48N 36°59' W 008°13'2 8.4
2018-Jun-20 02:30N 37°00' W 008°16'4 8.5
2018-Jun-20 02:00N 37°02' W 008°20'2 4.8
2018-Jun-20 01:30N 37°03' W 008°23'3 6.6
2018-Jun-20 01:00N 37°04' W 008°27'4 8.6
2018-Jun-20 00:30N 37°06' W 008°32'2 3.2
2018-Jun-20 00:00N 37°08' W 008°32'0 0.0
2018-Jun-19 23:30N 37°08' W 008°32'0 0.0
2018-Jun-19 23:00N 37°08' W 008°32'2 4.1
2018-Jun-19 22:29N 37°06' W 008°31'1 2.5
2018-Jun-19 22:00N 37°05' W 008°30'1 1.4
2018-Jun-19 21:30N 37°05' W 008°29'0 0.6
2018-Jun-19 21:00N 37°05' W 008°29'0 0.4
2018-Jun-19 20:30N 37°05' W 008°29'0 0.6
2018-Jun-19 20:00N 37°05' W 008°29'3 5.1
2018-Jun-19 19:30N 37°06' W 008°31'2 4.1
2018-Jun-19 19:00N 37°08' W 008°32'0 0.0
2018-Jun-19 18:30N 37°08' W 008°32'0 0.0
2018-Jun-19 18:00N 37°08' W 008°32'0 0.0
2018-Jun-19 17:30N 37°08' W 008°32'0 0.0
2018-Jun-19 17:00N 37°08' W 008°32'0 0.0
2018-Jun-19 09:51N 37°08' W 008°32'0 0.0
2018-Jun-19 09:30N 37°08' W 008°32'0 0.0
2018-Jun-19 08:59N 37°08' W 008°32'1 2.8
2018-Jun-19 08:30N 37°07' W 008°32'4 7.6
2018-Jun-19 08:00N 37°03' W 008°34'0 0.1
2018-Jun-19 07:30N 37°03' W 008°34'0 0.1
2018-Jun-19 07:00N 37°03' W 008°34'0 0.2
2018-Jun-19 06:30N 37°03' W 008°34'4 8.5
2018-Jun-19 06:00N 37°03' W 008°28'2 4.7
2018-Jun-19 05:30N 37°01' W 008°27'1 1.5
2018-Jun-19 04:58N 37°01' W 008°28'2 4.9
2018-Jun-19 04:30N 37°02' W 008°25'0 1.0
2018-Jun-19 04:00N 37°03' W 008°25'4 7.0
2018-Jun-19 03:30N 37°01' W 008°21'4 8.2
2018-Jun-19 03:00N 37°02' W 008°17'11 1.3
2018-Jun-18 18:21N 37°05' W 008°30'3 8.2
2018-Jun-18 17:59N 37°08' W 008°32'0 0.0
2018-Jun-18 10:57N 37°08' W 008°32'0 0.0
2018-Jun-18 10:30N 37°08' W 008°32'0 0.1
2018-Jun-18 10:00N 37°08' W 008°32'3 6.1
2018-Jun-18 09:30N 37°06' W 008°34'0 0.5
2018-Jun-18 09:00N 37°05' W 008°34'2 4.9
2018-Jun-18 08:30N 37°04' W 008°37'1 2.0
2018-Jun-18 08:00N 37°03' W 008°37'0 0.2
2018-Jun-18 07:30N 37°03' W 008°37'0 0.1
2018-Jun-18 07:00N 37°03' W 008°37'0 0.0
2018-Jun-18 06:30N 37°03' W 008°37'0 0.1
2018-Jun-18 06:00N 37°03' W 008°37'2 3.3
2018-Jun-18 05:30N 37°04' W 008°36'2 4.6
2018-Jun-18 05:00N 37°04' W 008°33'510.2
2018-Jun-18 04:29N 37°03' W 008°26'2 3.6
2018-Jun-18 04:00N 37°03' W 008°24'5 1.3
2018-Jun-18 00:03N 37°01' W 008°30'1 9.5
2018-Jun-17 23:59N 37°01' W 008°30'5 9.6
2018-Jun-17 23:28N 37°06' W 008°32'2 4.0
2018-Jun-17 23:00N 37°08' W 008°32'0 0.0
2018-Jun-17 22:30N 37°08' W 008°32'0 0.0
2018-Jun-17 21:57N 37°08' W 008°32'0 0.0
2018-Jun-17 17:01N 37°08' W 008°32'0 0.0
2018-Jun-17 16:57N 37°08' W 008°32'0 0.0
2018-Jun-17 16:29N 37°08' W 008°32'0 0.0
2018-Jun-17 15:57N 37°08' W 008°32'0 0.0
2018-Jun-17 15:29N 37°08' W 008°32'0 0.0
2018-Jun-17 00:52N 37°08' W 008°32'0 0.0
2018-Jun-16 20:50N 37°08' W 008°32'0 0.0
2018-Jun-16 12:47N 37°08' W 008°32'0 0.0
2018-Jun-16 12:29N 37°08' W 008°32'0 0.0
2018-Jun-16 12:00N 37°08' W 008°32'0 0.0
2018-Jun-16 11:30N 37°08' W 008°32'0 0.0
2018-Jun-16 11:00N 37°08' W 008°32'0 0.0
2018-Jun-16 10:30N 37°08' W 008°32'0 0.0
2018-Jun-16 10:00N 37°08' W 008°32'0 0.0
2018-Jun-16 09:31N 37°08' W 008°32'0 0.0
2018-Jun-16 09:00N 37°08' W 008°32'0 0.0
2018-Jun-15 12:11N 37°08' W 008°32'0 0.3
2018-Jun-15 12:00N 37°08' W 008°32'0 0.0
2018-Jun-15 11:30N 37°08' W 008°32'1 2.0
2018-Jun-15 11:00N 37°07' W 008°32'510.0
2018-Jun-15 10:31N 37°04' W 008°37'4 8.5
2018-Jun-15 10:00N 37°02' W 008°41'0 0.5
2018-Jun-15 09:30N 37°02' W 008°41'0 0.1
2018-Jun-15 09:00N 37°02' W 008°41'0 0.2
2018-Jun-15 08:30N 37°02' W 008°42'1 2.8
2018-Jun-15 08:00N 37°03' W 008°40'2 3.2
2018-Jun-15 07:30N 37°05' W 008°39'0 0.1
2018-Jun-15 07:00N 37°05' W 008°39'0 0.1
2018-Jun-15 06:30N 37°05' W 008°39'0 0.2
2018-Jun-15 06:00N 37°05' W 008°39'0 0.2
2018-Jun-15 05:30N 37°05' W 008°39'1 2.8
2018-Jun-15 05:00N 37°04' W 008°37'1 1.8
2018-Jun-15 04:30N 37°05' W 008°37'0 0.3
2018-Jun-15 04:00N 37°05' W 008°37'0 0.3
2018-Jun-15 03:30N 37°05' W 008°37'0 0.2
2018-Jun-15 03:00N 37°06' W 008°37'1 2.0
2018-Jun-15 02:30N 37°06' W 008°36'4 7.5
2018-Jun-15 02:01N 37°07' W 008°32'1 2.5
2018-Jun-15 01:30N 37°08' W 008°32'0 0.0
2018-Jun-15 01:00N 37°08' W 008°32'0 0.0
2018-Jun-15 00:30N 37°08' W 008°32'0 0.0
2018-Jun-15 00:00N 37°08' W 008°32'0 0.1
2018-Jun-14 23:30N 37°08' W 008°32'0 0.4
2018-Jun-14 23:00N 37°08' W 008°32'3 5.4
2018-Jun-14 22:30N 37°05' W 008°31'1 2.4
2018-Jun-14 22:00N 37°04' W 008°31'0 0.6
2018-Jun-14 21:30N 37°04' W 008°31'0 0.2
2018-Jun-14 21:01N 37°04' W 008°32'0 0.1
2018-Jun-14 20:31N 37°04' W 008°32'0 0.5
2018-Jun-14 20:00N 37°04' W 008°32'4 7.6
2018-Jun-14 19:30N 37°08' W 008°32'0 0.0
2018-Jun-14 13:08N 37°08' W 008°32'0 0.0
2018-Jun-14 13:01N 37°08' W 008°32'0 0.0
2018-Jun-14 12:31N 37°08' W 008°32'0 0.0
2018-Jun-14 12:00N 37°08' W 008°32'0 0.0
2018-Jun-14 11:30N 37°08' W 008°32'0 0.0
2018-Jun-14 11:01N 37°08' W 008°32'0 0.0
2018-Jun-14 10:29N 37°08' W 008°32'0 0.0
2018-Jun-14 09:51N 37°08' W 008°32'0 0.0
2018-Jun-14 09:27N 37°08' W 008°32'0 0.0
2018-Jun-14 09:00N 37°08' W 008°32'0 0.0
2018-Jun-14 08:30N 37°08' W 008°32'0 0.1
2018-Jun-14 08:00N 37°08' W 008°32'3 4.9
2018-Jun-14 07:28N 37°06' W 008°30'510.0
2018-Jun-14 06:57N 37°03' W 008°24'4 9.9
2018-Jun-14 06:30N 37°02' W 008°19'510.1
2018-Jun-14 05:58N 37°00' W 008°13'7 1.7
2018-Jun-14 02:04N 36°56' W 008°06'1 8.0
2018-Jun-14 02:00N 36°56' W 008°07'2 4.5
2018-Jun-14 01:30N 36°57' W 008°09'2 4.8
2018-Jun-14 01:01N 36°59' W 008°12'5 9.2
2018-Jun-14 00:29N 36°60' W 008°17'4 8.8
2018-Jun-14 00:00N 37°01' W 008°23'4 9.0
2018-Jun-13 23:30N 37°04' W 008°27'5 9.4
2018-Jun-13 23:01N 37°06' W 008°32'2 3.2
2018-Jun-13 22:31N 37°08' W 008°32'0 0.0
2018-Jun-13 22:00N 37°08' W 008°32'0 0.0
2018-Jun-13 21:30N 37°08' W 008°32'0 0.0
2018-Jun-13 21:00N 37°08' W 008°32'0 0.0
2018-Jun-13 20:30N 37°08' W 008°32'0 0.0
2018-Jun-13 20:01N 37°08' W 008°32'0 0.0
2018-Jun-13 10:32N 37°08' W 008°32'0 0.0
2018-Jun-13 10:30N 37°08' W 008°32'0 0.0
2018-Jun-13 09:50N 37°08' W 008°32'0 0.0
2018-Jun-13 09:30N 37°08' W 008°32'0 0.0
2018-Jun-13 09:00N 37°08' W 008°32'0 0.0
2018-Jun-13 08:30N 37°08' W 008°32'0 0.0
2018-Jun-13 08:00N 37°08' W 008°32'0 0.2
2018-Jun-13 07:30N 37°08' W 008°32'4 8.6
2018-Jun-13 07:00N 37°05' W 008°28'510.4
2018-Jun-13 06:29N 37°02' W 008°22'510.3
2018-Jun-13 06:00N 36°60' W 008°17'510.4
2018-Jun-13 05:30N 36°57' W 008°11'2 0.5
2018-Jun-13 01:59N 36°58' W 008°10'4 7.9
2018-Jun-13 01:29N 37°00' W 008°15'3 6.1
2018-Jun-13 01:00N 37°00' W 008°18'2 4.4
2018-Jun-13 00:30N 37°02' W 008°20'5 9.0
2018-Jun-13 00:00N 37°03' W 008°26'5 9.4
2018-Jun-12 23:30N 37°05' W 008°31'3 5.5
2018-Jun-12 23:00N 37°08' W 008°32'0 0.0
2018-Jun-12 22:30N 37°08' W 008°32'0 0.0
2018-Jun-12 22:00N 37°08' W 008°32'0 0.0
2018-Jun-12 21:30N 37°08' W 008°32'0 0.0
2018-Jun-12 21:00N 37°08' W 008°32'0 0.0
2018-Jun-12 20:30N 37°08' W 008°32'0 0.0
2018-Jun-12 20:00N 37°08' W 008°32'0 0.0
2018-Jun-12 19:30N 37°08' W 008°32'0 0.0
2018-Jun-12 19:00N 37°08' W 008°32'0 0.0
2018-Jun-12 14:09N 37°08' W 008°32'0 0.0
2018-Jun-12 13:19N 37°08' W 008°32'0 0.0
2018-Jun-12 13:00N 37°08' W 008°32'0 0.0
2018-Jun-12 12:30N 37°08' W 008°32'0 0.0
2018-Jun-12 12:00N 37°08' W 008°32'0 0.1
2018-Jun-12 11:30N 37°08' W 008°32'2 3.1
2018-Jun-12 11:00N 37°06' W 008°32'510.2
2018-Jun-12 10:30N 37°04' W 008°26'5 9.9
2018-Jun-12 09:58N 37°00' W 008°21'0 0.6
2018-Jun-12 09:30N 37°00' W 008°21'0 0.2
2018-Jun-12 08:59N 37°00' W 008°22'0 0.1
2018-Jun-12 08:06N 37°00' W 008°21'0 1.6
2018-Jun-12 08:00N 37°00' W 008°22'4 6.9
2018-Jun-12 07:29N 36°60' W 008°17'4 7.7
2018-Jun-12 07:00N 37°00' W 008°12'0 0.1
2018-Jun-12 06:12N 37°00' W 008°12'0 0.0
2018-Jun-12 05:56N 37°00' W 008°12'0 0.1
2018-Jun-12 05:29N 37°00' W 008°13'0 0.2
2018-Jun-12 04:59N 37°00' W 008°12'2 4.6
2018-Jun-12 04:30N 36°60' W 008°15'1 1.8
2018-Jun-12 04:00N 37°00' W 008°16'2 3.7
2018-Jun-12 03:30N 37°02' W 008°15'0 0.2
2018-Jun-12 02:43N 37°02' W 008°15'0 0.4
2018-Jun-12 02:17N 37°02' W 008°15'0 0.3
2018-Jun-12 01:56N 37°02' W 008°15'0 0.3
2018-Jun-12 01:30N 37°02' W 008°15'0 0.2
2018-Jun-12 01:00N 37°02' W 008°15'1 1.7
2018-Jun-12 00:30N 37°02' W 008°14'3 5.9
2018-Jun-12 00:00N 37°01' W 008°11'3 6.0
2018-Jun-11 23:30N 36°60' W 008°14'4 8.8
2018-Jun-11 23:00N 37°01' W 008°20'5 9.8
2018-Jun-11 22:27N 37°03' W 008°26'5 9.9
2018-Jun-11 21:59N 37°06' W 008°31'3 5.2
2018-Jun-11 21:30N 37°08' W 008°32'0 0.0
2018-Jun-11 20:24N 37°08' W 008°32'0 0.0
2018-Jun-11 19:58N 37°08' W 008°32'0 0.0
2018-Jun-11 19:30N 37°08' W 008°32'0 0.0
2018-Jun-11 19:00N 37°08' W 008°32'0 0.3
2018-Jun-11 18:30N 37°08' W 008°32'0 0.0
2018-Jun-11 15:17N 37°08' W 008°32'0 0.0
2018-Jun-11 15:00N 37°08' W 008°32'0 0.0
2018-Jun-11 14:30N 37°08' W 008°32'0 0.0
2018-Jun-11 14:00N 37°08' W 008°32'0 0.0
2018-Jun-11 13:30N 37°08' W 008°32'0 0.0
2018-Jun-11 13:00N 37°08' W 008°32'0 0.0
2018-Jun-11 12:30N 37°08' W 008°32'0 0.0
2018-Jun-11 12:00N 37°08' W 008°32'0 0.0
2018-Jun-11 11:30N 37°08' W 008°32'0 0.0
2018-Jun-11 11:00N 37°08' W 008°32'0 0.0
2018-Jun-11 10:30N 37°08' W 008°32'0 0.0
2018-Jun-11 10:00N 37°08' W 008°32'0 0.0
2018-Jun-11 09:30N 37°08' W 008°32'0 0.0
2018-Jun-11 09:00N 37°08' W 008°32'0 0.3
2018-Jun-11 08:30N 37°08' W 008°32'0 0.0
2018-Jun-11 08:00N 37°08' W 008°32'3 5.1
2018-Jun-11 07:25N 37°05' W 008°30'410.3
2018-Jun-11 06:59N 37°04' W 008°24'510.3
2018-Jun-11 06:30N 37°02' W 008°18'3 5.6
2018-Jun-11 06:00N 37°01' W 008°15'0 0.3
2018-Jun-11 05:30N 37°01' W 008°15'0 0.1
2018-Jun-11 04:58N 37°01' W 008°15'0 0.1
2018-Jun-11 04:30N 37°01' W 008°15'3 5.3
2018-Jun-11 03:51N 37°01' W 008°20'0 1.2
2018-Jun-11 03:30N 37°01' W 008°20'0 0.3
2018-Jun-11 03:00N 37°01' W 008°20'2 3.8
2018-Jun-11 02:30N 37°02' W 008°18'1 1.7
2018-Jun-11 01:54N 37°01' W 008°18'410.2
2018-Jun-11 01:30N 37°03' W 008°23'3 6.2
2018-Jun-11 01:00N 37°04' W 008°26'0 0.1
2018-Jun-11 00:30N 37°04' W 008°26'0 0.1
2018-Jun-11 00:00N 37°04' W 008°26'2 3.0
2018-Jun-10 23:30N 37°04' W 008°28'4 8.3
2018-Jun-10 23:00N 37°07' W 008°32'1 1.1
2018-Jun-10 22:30N 37°08' W 008°32'  
Track history (hours):
 
Tides and Currents Weather Stations Pressure Air Temp Water Temp Dewpoint Dewpoint Depression Visibility Wind Speed Wind Dir Waves Ship Positions

O Portipesca

Last reported at 2018-Jun-20 22:11 UTC. Time now 2018-Jun-20 23:09 UTC.
Position N 37°03' W 008°42'.

Length 23 m.

Type: Fishing. MMSI: 263401780.

Date/timePositionNaut miles runAvg speedWind from/ knotsBaromVisibWave heightAir tempDewpointWater temp
2018-Jun-20 22:11N 37°03' W 008°42'2 9.0
2018-Jun-20 22:00N 37°04' W 008°40'4 8.8
2018-Jun-20 21:30N 37°05' W 008°35'3 7.0
2018-Jun-20 21:00N 37°08' W 008°32'0 0.6
2018-Jun-20 20:27N 37°08' W 008°32'0 0.0
2018-Jun-20 20:00N 37°08' W 008°32'0 0.0
2018-Jun-20 19:29N 37°08' W 008°32'0 0.0
2018-Jun-20 19:00N 37°08' W 008°32'0 0.0
2018-Jun-20 18:30N 37°08' W 008°32'0 0.3
2018-Jun-20 18:00N 37°08' W 008°32'0 0.0
2018-Jun-20 17:30N 37°08' W 008°32'0 0.0
2018-Jun-20 17:00N 37°08' W 008°32'0 0.0
2018-Jun-20 13:55N 37°08' W 008°32'0 0.0
2018-Jun-20 13:30N 37°08' W 008°32'0 0.0
2018-Jun-20 13:00N 37°08' W 008°32'0 0.0
2018-Jun-20 12:30N 37°08' W 008°32'0 0.0
2018-Jun-20 08:55N 37°08' W 008°32'0 0.1
2018-Jun-20 07:39N 37°08' W 008°32'0 0.0
2018-Jun-20 07:10N 37°08' W 008°32'0 0.0
2018-Jun-20 07:00N 37°08' W 008°32'4 8.0
2018-Jun-20 06:30N 37°05' W 008°29'4 7.1
2018-Jun-20 06:00N 37°02' W 008°26'3 5.6
2018-Jun-20 05:30N 36°59' W 008°25'3 5.2
2018-Jun-20 05:00N 37°01' W 008°27'3 5.3
2018-Jun-20 04:30N 37°03' W 008°25'4 8.7
2018-Jun-20 04:00N 37°01' W 008°20'5 9.9
2018-Jun-20 03:29N 36°59' W 008°14'1 0.9
2018-Jun-20 02:48N 36°59' W 008°13'2 8.4
2018-Jun-20 02:30N 37°00' W 008°16'4 8.5
2018-Jun-20 02:00N 37°02' W 008°20'2 4.8
2018-Jun-20 01:30N 37°03' W 008°23'3 6.6
2018-Jun-20 01:00N 37°04' W 008°27'4 8.6
2018-Jun-20 00:30N 37°06' W 008°32'2 3.2
2018-Jun-20 00:00N 37°08' W 008°32'0 0.0
2018-Jun-19 23:30N 37°08' W 008°32'0 0.0
2018-Jun-19 23:00N 37°08' W 008°32'2 4.1
2018-Jun-19 22:29N 37°06' W 008°31'1 2.5
2018-Jun-19 22:00N 37°05' W 008°30'1 1.4
2018-Jun-19 21:30N 37°05' W 008°29'0 0.6
2018-Jun-19 21:00N 37°05' W 008°29'0 0.4
2018-Jun-19 20:30N 37°05' W 008°29'0 0.6
2018-Jun-19 20:00N 37°05' W 008°29'3 5.1
2018-Jun-19 19:30N 37°06' W 008°31'2 4.1
2018-Jun-19 19:00N 37°08' W 008°32'0 0.0
2018-Jun-19 18:30N 37°08' W 008°32'0 0.0
2018-Jun-19 18:00N 37°08' W 008°32'0 0.0
2018-Jun-19 17:30N 37°08' W 008°32'0 0.0
2018-Jun-19 17:00N 37°08' W 008°32'0 0.0
2018-Jun-19 09:51N 37°08' W 008°32'0 0.0
2018-Jun-19 09:30N 37°08' W 008°32'0 0.0
2018-Jun-19 08:59N 37°08' W 008°32'1 2.8
2018-Jun-19 08:30N 37°07' W 008°32'4 7.6
2018-Jun-19 08:00N 37°03' W 008°34'0 0.1
2018-Jun-19 07:30N 37°03' W 008°34'0 0.1
2018-Jun-19 07:00N 37°03' W 008°34'0 0.2
2018-Jun-19 06:30N 37°03' W 008°34'4 8.5
2018-Jun-19 06:00N 37°03' W 008°28'2 4.7
2018-Jun-19 05:30N 37°01' W 008°27'1 1.5
2018-Jun-19 04:58N 37°01' W 008°28'2 4.9
2018-Jun-19 04:30N 37°02' W 008°25'0 1.0
2018-Jun-19 04:00N 37°03' W 008°25'4 7.0
2018-Jun-19 03:30N 37°01' W 008°21'4 8.2
2018-Jun-19 03:00N 37°02' W 008°17'11 1.3
2018-Jun-18 18:21N 37°05' W 008°30'3 8.2
2018-Jun-18 17:59N 37°08' W 008°32'0 0.0
2018-Jun-18 10:57N 37°08' W 008°32'0 0.0
2018-Jun-18 10:30N 37°08' W 008°32'0 0.1
2018-Jun-18 10:00N 37°08' W 008°32'3 6.1
2018-Jun-18 09:30N 37°06' W 008°34'0 0.5
2018-Jun-18 09:00N 37°05' W 008°34'2 4.9
2018-Jun-18 08:30N 37°04' W 008°37'1 2.0
2018-Jun-18 08:00N 37°03' W 008°37'0 0.2
2018-Jun-18 07:30N 37°03' W 008°37'0 0.1
2018-Jun-18 07:00N 37°03' W 008°37'0 0.0
2018-Jun-18 06:30N 37°03' W 008°37'0 0.1
2018-Jun-18 06:00N 37°03' W 008°37'2 3.3
2018-Jun-18 05:30N 37°04' W 008°36'2 4.6
2018-Jun-18 05:00N 37°04' W 008°33'510.2
2018-Jun-18 04:29N 37°03' W 008°26'2 3.6
2018-Jun-18 04:00N 37°03' W 008°24'5 1.3
2018-Jun-18 00:03N 37°01' W 008°30'1 9.5
2018-Jun-17 23:59N 37°01' W 008°30'5 9.6
2018-Jun-17 23:28N 37°06' W 008°32'2 4.0
2018-Jun-17 23:00N 37°08' W 008°32'0 0.0
2018-Jun-17 22:30N 37°08' W 008°32'0 0.0
2018-Jun-17 21:57N 37°08' W 008°32'0 0.0
2018-Jun-17 17:01N 37°08' W 008°32'0 0.0
2018-Jun-17 16:57N 37°08' W 008°32'0 0.0
2018-Jun-17 16:29N 37°08' W 008°32'0 0.0
2018-Jun-17 15:57N 37°08' W 008°32'0 0.0
2018-Jun-17 15:29N 37°08' W 008°32'0 0.0
2018-Jun-17 00:52N 37°08' W 008°32'0 0.0
2018-Jun-16 20:50N 37°08' W 008°32'0 0.0
2018-Jun-16 12:47N 37°08' W 008°32'0 0.0
2018-Jun-16 12:29N 37°08' W 008°32'0 0.0
2018-Jun-16 12:00N 37°08' W 008°32'0 0.0
2018-Jun-16 11:30N 37°08' W 008°32'0 0.0
2018-Jun-16 11:00N 37°08' W 008°32'0 0.0
2018-Jun-16 10:30N 37°08' W 008°32'0 0.0
2018-Jun-16 10:00N 37°08' W 008°32'0 0.0
2018-Jun-16 09:31N 37°08' W 008°32'0 0.0
2018-Jun-16 09:00N 37°08' W 008°32'0 0.0
2018-Jun-15 12:11N 37°08' W 008°32'0 0.3
2018-Jun-15 12:00N 37°08' W 008°32'0 0.0
2018-Jun-15 11:30N 37°08' W 008°32'1 2.0
2018-Jun-15 11:00N 37°07' W 008°32'510.0
2018-Jun-15 10:31N 37°04' W 008°37'4 8.5
2018-Jun-15 10:00N 37°02' W 008°41'0 0.5
2018-Jun-15 09:30N 37°02' W 008°41'0 0.1
2018-Jun-15 09:00N 37°02' W 008°41'0 0.2
2018-Jun-15 08:30N 37°02' W 008°42'1 2.8
2018-Jun-15 08:00N 37°03' W 008°40'2 3.2
2018-Jun-15 07:30N 37°05' W 008°39'0 0.1
2018-Jun-15 07:00N 37°05' W 008°39'0 0.1
2018-Jun-15 06:30N 37°05' W 008°39'0 0.2
2018-Jun-15 06:00N 37°05' W 008°39'0 0.2
2018-Jun-15 05:30N 37°05' W 008°39'1 2.8
2018-Jun-15 05:00N 37°04' W 008°37'1 1.8
2018-Jun-15 04:30N 37°05' W 008°37'0 0.3
2018-Jun-15 04:00N 37°05' W 008°37'0 0.3
2018-Jun-15 03:30N 37°05' W 008°37'0 0.2
2018-Jun-15 03:00N 37°06' W 008°37'1 2.0
2018-Jun-15 02:30N 37°06' W 008°36'4 7.5
2018-Jun-15 02:01N 37°07' W 008°32'1 2.5
2018-Jun-15 01:30N 37°08' W 008°32'0 0.0
2018-Jun-15 01:00N 37°08' W 008°32'0 0.0
2018-Jun-15 00:30N 37°08' W 008°32'0 0.0
2018-Jun-15 00:00N 37°08' W 008°32'0 0.1
2018-Jun-14 23:30N 37°08' W 008°32'0 0.4
2018-Jun-14 23:00N 37°08' W 008°32'3 5.4
2018-Jun-14 22:30N 37°05' W 008°31'1 2.4
2018-Jun-14 22:00N 37°04' W 008°31'0 0.6
2018-Jun-14 21:30N 37°04' W 008°31'0 0.2
2018-Jun-14 21:01N 37°04' W 008°32'0 0.1
2018-Jun-14 20:31N 37°04' W 008°32'0 0.5
2018-Jun-14 20:00N 37°04' W 008°32'4 7.6
2018-Jun-14 19:30N 37°08' W 008°32'0 0.0
2018-Jun-14 13:08N 37°08' W 008°32'0 0.0
2018-Jun-14 13:01N 37°08' W 008°32'0 0.0
2018-Jun-14 12:31N 37°08' W 008°32'0 0.0
2018-Jun-14 12:00N 37°08' W 008°32'0 0.0
2018-Jun-14 11:30N 37°08' W 008°32'0 0.0
2018-Jun-14 11:01N 37°08' W 008°32'0 0.0
2018-Jun-14 10:29N 37°08' W 008°32'0 0.0
2018-Jun-14 09:51N 37°08' W 008°32'0 0.0
2018-Jun-14 09:27N 37°08' W 008°32'0 0.0
2018-Jun-14 09:00N 37°08' W 008°32'0 0.0
2018-Jun-14 08:30N 37°08' W 008°32'0 0.1
2018-Jun-14 08:00N 37°08' W 008°32'3 4.9
2018-Jun-14 07:28N 37°06' W 008°30'510.0
2018-Jun-14 06:57N 37°03' W 008°24'4 9.9
2018-Jun-14 06:30N 37°02' W 008°19'510.1
2018-Jun-14 05:58N 37°00' W 008°13'7 1.7
2018-Jun-14 02:04N 36°56' W 008°06'1 8.0
2018-Jun-14 02:00N 36°56' W 008°07'2 4.5
2018-Jun-14 01:30N 36°57' W 008°09'2 4.8
2018-Jun-14 01:01N 36°59' W 008°12'5 9.2
2018-Jun-14 00:29N 36°60' W 008°17'4 8.8
2018-Jun-14 00:00N 37°01' W 008°23'4 9.0
2018-Jun-13 23:30N 37°04' W 008°27'5 9.4
2018-Jun-13 23:01N 37°06' W 008°32'2 3.2
2018-Jun-13 22:31N 37°08' W 008°32'0 0.0
2018-Jun-13 22:00N 37°08' W 008°32'0 0.0
2018-Jun-13 21:30N 37°08' W 008°32'0 0.0
2018-Jun-13 21:00N 37°08' W 008°32'0 0.0
2018-Jun-13 20:30N 37°08' W 008°32'0 0.0
2018-Jun-13 20:01N 37°08' W 008°32'0 0.0
2018-Jun-13 10:32N 37°08' W 008°32'0 0.0
2018-Jun-13 10:30N 37°08' W 008°32'0 0.0
2018-Jun-13 09:50N 37°08' W 008°32'0 0.0
2018-Jun-13 09:30N 37°08' W 008°32'0 0.0
2018-Jun-13 09:00N 37°08' W 008°32'0 0.0
2018-Jun-13 08:30N 37°08' W 008°32'0 0.0
2018-Jun-13 08:00N 37°08' W 008°32'0 0.2
2018-Jun-13 07:30N 37°08' W 008°32'4 8.6
2018-Jun-13 07:00N 37°05' W 008°28'510.4
2018-Jun-13 06:29N 37°02' W 008°22'510.3
2018-Jun-13 06:00N 36°60' W 008°17'510.4
2018-Jun-13 05:30N 36°57' W 008°11'2 0.5
2018-Jun-13 01:59N 36°58' W 008°10'4 7.9
2018-Jun-13 01:29N 37°00' W 008°15'3 6.1
2018-Jun-13 01:00N 37°00' W 008°18'2 4.4
2018-Jun-13 00:30N 37°02' W 008°20'5 9.0
2018-Jun-13 00:00N 37°03' W 008°26'5 9.4
2018-Jun-12 23:30N 37°05' W 008°31'3 5.5
2018-Jun-12 23:00N 37°08' W 008°32'0 0.0
2018-Jun-12 22:30N 37°08' W 008°32'0 0.0
2018-Jun-12 22:00N 37°08' W 008°32'0 0.0
2018-Jun-12 21:30N 37°08' W 008°32'0 0.0
2018-Jun-12 21:00N 37°08' W 008°32'0 0.0
2018-Jun-12 20:30N 37°08' W 008°32'0 0.0
2018-Jun-12 20:00N 37°08' W 008°32'0 0.0
2018-Jun-12 19:30N 37°08' W 008°32'0 0.0
2018-Jun-12 19:00N 37°08' W 008°32'0 0.0
2018-Jun-12 14:09N 37°08' W 008°32'0 0.0
2018-Jun-12 13:19N 37°08' W 008°32'0 0.0
2018-Jun-12 13:00N 37°08' W 008°32'0 0.0
2018-Jun-12 12:30N 37°08' W 008°32'0 0.0
2018-Jun-12 12:00N 37°08' W 008°32'0 0.1
2018-Jun-12 11:30N 37°08' W 008°32'2 3.1
2018-Jun-12 11:00N 37°06' W 008°32'510.2
2018-Jun-12 10:30N 37°04' W 008°26'5 9.9
2018-Jun-12 09:58N 37°00' W 008°21'0 0.6
2018-Jun-12 09:30N 37°00' W 008°21'0 0.2
2018-Jun-12 08:59N 37°00' W 008°22'0 0.1
2018-Jun-12 08:06N 37°00' W 008°21'0 1.6
2018-Jun-12 08:00N 37°00' W 008°22'4 6.9
2018-Jun-12 07:29N 36°60' W 008°17'4 7.7
2018-Jun-12 07:00N 37°00' W 008°12'0 0.1
2018-Jun-12 06:12N 37°00' W 008°12'0 0.0
2018-Jun-12 05:56N 37°00' W 008°12'0 0.1
2018-Jun-12 05:29N 37°00' W 008°13'0 0.2
2018-Jun-12 04:59N 37°00' W 008°12'2 4.6
2018-Jun-12 04:30N 36°60' W 008°15'1 1.8
2018-Jun-12 04:00N 37°00' W 008°16'2 3.7
2018-Jun-12 03:30N 37°02' W 008°15'0 0.2
2018-Jun-12 02:43N 37°02' W 008°15'0 0.4
2018-Jun-12 02:17N 37°02' W 008°15'0 0.3
2018-Jun-12 01:56N 37°02' W 008°15'0 0.3
2018-Jun-12 01:30N 37°02' W 008°15'0 0.2
2018-Jun-12 01:00N 37°02' W 008°15'1 1.7
2018-Jun-12 00:30N 37°02' W 008°14'3 5.9
2018-Jun-12 00:00N 37°01' W 008°11'3 6.0
2018-Jun-11 23:30N 36°60' W 008°14'4 8.8
2018-Jun-11 23:00N 37°01' W 008°20'5 9.8
2018-Jun-11 22:27N 37°03' W 008°26'5 9.9
2018-Jun-11 21:59N 37°06' W 008°31'3 5.2
2018-Jun-11 21:30N 37°08' W 008°32'0 0.0
2018-Jun-11 20:24N 37°08' W 008°32'0 0.0
2018-Jun-11 19:58N 37°08' W 008°32'0 0.0
2018-Jun-11 19:30N 37°08' W 008°32'0 0.0
2018-Jun-11 19:00N 37°08' W 008°32'0 0.3
2018-Jun-11 18:30N 37°08' W 008°32'0 0.0
2018-Jun-11 15:17N 37°08' W 008°32'0 0.0
2018-Jun-11 15:00N 37°08' W 008°32'0 0.0
2018-Jun-11 14:30N 37°08' W 008°32'0 0.0
2018-Jun-11 14:00N 37°08' W 008°32'0 0.0
2018-Jun-11 13:30N 37°08' W 008°32'0 0.0
2018-Jun-11 13:00N 37°08' W 008°32'0 0.0
2018-Jun-11 12:30N 37°08' W 008°32'0 0.0
2018-Jun-11 12:00N 37°08' W 008°32'0 0.0
2018-Jun-11 11:30N 37°08' W 008°32'0 0.0
2018-Jun-11 11:00N 37°08' W 008°32'0 0.0
2018-Jun-11 10:30N 37°08' W 008°32'0 0.0
2018-Jun-11 10:00N 37°08' W 008°32'0 0.0
2018-Jun-11 09:30N 37°08' W 008°32'0 0.0
2018-Jun-11 09:00N 37°08' W 008°32'0 0.3
2018-Jun-11 08:30N 37°08' W 008°32'0 0.0
2018-Jun-11 08:00N 37°08' W 008°32'3 5.1
2018-Jun-11 07:25N 37°05' W 008°30'410.3
2018-Jun-11 06:59N 37°04' W 008°24'510.3
2018-Jun-11 06:30N 37°02' W 008°18'3 5.6
2018-Jun-11 06:00N 37°01' W 008°15'0 0.3
2018-Jun-11 05:30N 37°01' W 008°15'0 0.1
2018-Jun-11 04:58N 37°01' W 008°15'0 0.1
2018-Jun-11 04:30N 37°01' W 008°15'3 5.3
2018-Jun-11 03:51N 37°01' W 008°20'0 1.2
2018-Jun-11 03:30N 37°01' W 008°20'0 0.3
2018-Jun-11 03:00N 37°01' W 008°20'2 3.8
2018-Jun-11 02:30N 37°02' W 008°18'1 1.7
2018-Jun-11 01:54N 37°01' W 008°18'410.2
2018-Jun-11 01:30N 37°03' W 008°23'3 6.2
2018-Jun-11 01:00N 37°04' W 008°26'0 0.1
2018-Jun-11 00:30N 37°04' W 008°26'0 0.1
2018-Jun-11 00:00N 37°04' W 008°26'2 3.0
2018-Jun-10 23:30N 37°04' W 008°28'4 8.3
2018-Jun-10 23:00N 37°07' W 008°32'1 1.1
2018-Jun-10 22:30N 37°08' W 008°32'  

Dump ship's entire track history